Zenda, WI (53195)

03:46 AM CDT del 25 Aprile 2015 (GMT -0500)
Cornfield | | Change Station
CLOSE
Current Station
Stazione meteo personale
Location: Hebron, IL
Altitudine: 965 ft
Stazioni meteo nelle vicinanze

Alt. 965 ft 42.46 °N, 88.48 °W | Updated 1 minute ago

Coperto
Coperto
39.9 °F
Sembra 37 °F
N
4.0
Vento Variabile Vento da Est
Gusts 7.0 mph

Oggi
Massima -- | Minima -- °F
--% Possibilità di precip.
Ieri
Massima -- | Minima -- °F
Precip. -- in
5:57 AM 7:46 PM
Luna crescente, 44% visible
Pressione 29.86 in
Visibilità 10.0 miglia
Nuvole Coperto 4700 ft
Raffreddamento del vento 37 °F
Punto di rugiada 38 °F
Umidità 93%
Piovosità 0.00 in
Spessore del manto nevoso Non disponibile.
Raggi UV 0.0 fuori da 12
Polline 10.30 fuori da 12
Qualità dell'aria Non disponibile.
Flu Activity Local Activity
METAR KBUU 250835Z AUTO 08009KT 10SM OVC047 04/01 A2986 RMK AO2 T00360012

More Conditions Fewer Conditions

Pressione 29.86 in
Visibilità 10.0 miglia
Nuvole Coperto 4700 ft
Raffreddamento del vento 37 °F
Punto di rugiada 38 °F
Umidità 93%
Piovosità 0.00 in
Spessore del manto nevoso Non disponibile.
Raggi UV 0.0 fuori da 12
Polline 10.30 fuori da 12
Qualità dell'aria Non disponibile.
Flu Activity Local Activity
METAR KBUU 250835Z AUTO 08009KT 10SM OVC047 04/01 A2986 RMK AO2 T00360012

More Conditions Fewer Conditions

10-Day Weather Forecast

Almanac

Astronomia

Apr. 25, 2015 Alba Tramonto
Ora attuale
Crepuscolo civile
Crepuscolo nautico
Crepuscolo astronomico
Luna
Estensione della luce visibile
Lunghezza del giorno
Tomorrow will be .
, % of the Moon is Illuminated

Gli estremi di oggi

State Highs State Lows

Community

WunderPhotos

Upload Photos

1,816,624 foto caricate!

WunderBlogs® & News

Nearby

Qualità dell'aria

  Qualità dell'aria Indice AQ Inquinante
Not available.

Profondità neve

Stazione Profondità Altitudine

Attività sismica

Città  Distanza Mag. Data & Ora
Minimo Magnitudo Mostrato è 2.5.

Temperature delle acque costiere

Località Temperatura

Stations

Stazioni meteo nelle vicinanze

Ubicazione della stazione Temp. Raffreddamento del vento Punto di rugiada Umidità Vento Precip. Alt. Aggiornato Tipo